Time;durP1;ratioP1;P1;durP2;ratioP2;P2;SDS_P1;SDS_P2;PMS_P1;PMS_P2;Temp;Humidity;BMP_temperature;BMP_pressure;BME280_temperature;BME280_humidity;BME280_pressure;Samples;Min_cycle;Max_cycle;Signal;HPM_P1;HPM_P2
2022/07/15 00:00:37;;;;;;;6.95;1.50;;;19.60;86.60;;;;;;5050134;28;20216;-78
2022/07/15 00:03:26;;;;;;;8.32;1.48;;;19.60;88.00;;;;;;5064984;28;20223;-78
2022/07/15 00:06:15;;;;;;;7.25;1.63;;;19.50;88.00;;;;;;5064952;28;20872;-79
2022/07/15 00:09:04;;;;;;;3.15;1.38;;;19.40;89.50;;;;;;5064138;28;20216;-78
2022/07/15 00:11:53;;;;;;;3.70;1.30;;;19.50;89.00;;;;;;5081560;28;20220;-79
2022/07/15 00:14:41;;;;;;;4.60;1.45;;;19.40;89.80;;;;;;5063808;28;20385;-78
2022/07/15 00:17:30;;;;;;;6.00;1.42;;;19.50;89.80;;;;;;5066101;28;20216;-78
2022/07/15 00:20:20;;;;;;;2.13;1.00;;;19.60;90.20;;;;;;5066628;28;20224;-79
2022/07/15 00:23:09;;;;;;;3.17;1.30;;;19.30;90.40;;;;;;5066593;28;20228;-79
2022/07/15 00:25:59;;;;;;;4.85;1.55;;;19.30;91.10;;;;;;5052968;28;20212;-79
2022/07/15 00:28:48;;;;;;;3.78;1.40;;;19.20;91.40;;;;;;5062350;28;20583;-79
2022/07/15 00:31:36;;;;;;;5.40;1.23;;;19.20;91.80;;;;;;5068543;28;20227;-77
2022/07/15 00:34:25;;;;;;;4.93;1.40;;;19.00;92.40;;;;;;5082645;28;20230;-78
2022/07/15 00:37:14;;;;;;;3.80;1.15;;;19.20;93.00;;;;;;5085067;28;20225;-78
2022/07/15 00:40:03;;;;;;;7.10;1.70;;;19.00;93.30;;;;;;5084788;28;20679;-79
2022/07/15 00:42:53;;;;;;;4.32;1.45;;;18.90;93.80;;;;;;5087046;28;20221;-79
2022/07/15 00:45:42;;;;;;;7.60;1.58;;;19.00;94.30;;;;;;5079629;28;20350;-79
2022/07/15 00:48:30;;;;;;;4.88;1.17;;;18.90;94.40;;;;;;5065430;28;20231;-79
2022/07/15 00:51:19;;;;;;;4.93;1.40;;;19.10;94.50;;;;;;5066749;28;20216;-78
2022/07/15 00:54:10;;;;;;;3.92;1.23;;;19.10;94.90;;;;;;5085361;28;20245;-78
2022/07/15 00:57:00;;;;;;;6.32;1.30;;;19.10;94.90;;;;;;5083313;28;20423;-79
2022/07/15 00:59:51;;;;;;;2.55;1.20;;;19.20;95.10;;;;;;5063576;28;20223;-79
2022/07/15 01:02:42;;;;;;;4.25;1.15;;;19.30;94.80;;;;;;5047604;28;20785;-78
2022/07/15 01:05:31;;;;;;;3.58;1.35;;;19.20;95.20;;;;;;5044188;28;20218;-78
2022/07/15 01:08:20;;;;;;;3.22;1.20;;;19.30;94.80;;;;;;5063326;28;21152;-78
2022/07/15 01:11:09;;;;;;;1.58;0.90;;;19.30;95.00;;;;;;5044713;28;20665;-78
2022/07/15 01:13:59;;;;;;;3.50;1.17;;;19.10;95.40;;;;;;5065526;28;20465;-80
2022/07/15 01:16:49;;;;;;;5.75;1.40;;;19.10;95.00;;;;;;5057909;28;20302;-79
2022/07/15 01:19:39;;;;;;;3.05;1.10;;;19.30;95.40;;;;;;5039804;28;20227;-79
2022/07/15 01:22:30;;;;;;;8.60;1.20;;;19.20;95.20;;;;;;5040731;28;20665;-78
2022/07/15 01:25:18;;;;;;;3.97;1.20;;;19.20;94.30;;;;;;5072886;28;20216;-79
2022/07/15 01:28:09;;;;;;;4.30;1.50;;;19.40;94.50;;;;;;5069915;28;20220;-81
2022/07/15 01:30:58;;;;;;;6.60;1.17;;;19.50;94.30;;;;;;5043684;28;20869;-80
2022/07/15 01:33:52;;;;;;;2.90;1.00;;;19.30;93.40;;;;;;5056685;28;20717;-80
2022/07/15 01:36:41;;;;;;;4.25;1.08;;;19.20;93.10;;;;;;5059040;28;20781;-80
2022/07/15 01:39:31;;;;;;;1.50;0.80;;;19.30;93.40;;;;;;5045619;28;20248;-78
2022/07/15 01:42:26;;;;;;;6.45;1.15;;;19.30;93.80;;;;;;5056366;28;20224;-79
2022/07/15 01:45:15;;;;;;;2.63;0.98;;;19.30;93.40;;;;;;5076251;28;20216;-79
2022/07/15 01:48:06;;;;;;;2.83;1.00;;;19.10;93.10;;;;;;5051775;28;20239;-79
2022/07/15 01:51:06;;;;;;;4.38;1.20;;;19.10;93.70;;;;;;5048081;28;20231;-79
2022/07/15 01:53:55;;;;;;;2.88;0.90;;;19.20;93.70;;;;;;5075676;28;20387;-78
2022/07/15 01:56:45;;;;;;;1.77;0.90;;;19.00;93.90;;;;;;5045768;28;20982;-78
2022/07/15 01:59:34;;;;;;;2.30;0.93;;;19.00;94.70;;;;;;5048970;28;20235;-78
2022/07/15 02:02:23;;;;;;;2.47;1.02;;;19.00;95.80;;;;;;5044107;28;20223;-80
2022/07/15 02:05:11;;;;;;;3.95;1.10;;;18.90;96.20;;;;;;5064237;28;20281;-78
2022/07/15 02:08:01;;;;;;;4.30;1.10;;;18.80;96.90;;;;;;5046873;28;20212;-78
2022/07/15 02:10:50;;;;;;;2.92;1.20;;;18.70;97.70;;;;;;5051718;28;20303;-78
2022/07/15 02:13:42;;;;;;;5.93;1.23;;;18.70;99.00;;;;;;5076092;28;20224;-78
2022/07/15 02:16:35;;;;;;;2.72;1.40;;;18.60;99.60;;;;;;5052684;28;20243;-78
2022/07/15 02:19:29;;;;;;;6.10;1.17;;;18.70;99.70;;;;;;5063811;28;20303;-78
2022/07/15 02:22:18;;;;;;;5.93;1.20;;;18.60;99.60;;;;;;5059090;28;20235;-78
2022/07/15 02:25:07;;;;;;;3.65;1.10;;;18.50;99.90;;;;;;5039095;28;20232;-78
2022/07/15 02:27:57;;;;;;;4.40;1.25;;;18.50;99.90;;;;;;5042603;28;20718;-78
2022/07/15 02:30:47;;;;;;;5.47;1.38;;;18.40;99.90;;;;;;5059366;28;20293;-79
2022/07/15 02:33:36;;;;;;;8.73;1.73;;;18.40;99.90;;;;;;5058879;28;20242;-78
2022/07/15 02:36:29;;;;;;;5.28;0.82;;;18.40;99.90;;;;;;5071506;28;20227;-78
2022/07/15 02:39:18;;;;;;;5.35;1.33;;;18.50;99.90;;;;;;5059900;28;20338;-78
2022/07/15 02:42:07;;;;;;;3.78;1.40;;;18.40;99.90;;;;;;5058936;28;20304;-79
2022/07/15 02:44:58;;;;;;;3.95;1.00;;;18.40;99.90;;;;;;5046796;28;20228;-80
2022/07/15 02:47:49;;;;;;;5.22;1.20;;;18.40;99.90;;;;;;5044667;28;20224;-79
2022/07/15 02:50:46;;;;;;;3.85;1.40;;;18.30;99.90;;;;;;5046571;28;20280;-79
2022/07/15 02:53:37;;;;;;;2.85;0.90;;;18.40;99.90;;;;;;5043053;28;20263;-78
2022/07/15 02:56:30;;;;;;;7.32;1.25;;;18.30;99.90;;;;;;5073757;28;20217;-79
2022/07/15 02:59:18;;;;;;;4.13;1.20;;;18.30;99.90;;;;;;5061461;28;20224;-79
2022/07/15 03:02:10;;;;;;;4.65;1.23;;;18.40;99.90;;;;;;5074042;28;20328;-79
2022/07/15 03:05:01;;;;;;;6.30;1.40;;;18.40;99.90;;;;;;5062605;28;20220;-79
2022/07/15 03:07:50;;;;;;;5.97;1.40;;;18.40;99.90;;;;;;5049896;28;20216;-79
2022/07/15 03:10:42;;;;;;;6.05;1.70;;;18.40;99.90;;;;;;5077359;28;20719;-80
2022/07/15 03:13:30;;;;;;;4.00;1.70;;;18.30;99.90;;;;;;5051146;28;20221;-78
2022/07/15 03:16:19;;;;;;;7.32;2.05;;;18.30;99.90;;;;;;5051078;28;20226;-78
2022/07/15 03:19:11;;;;;;;8.57;1.75;;;18.40;99.90;;;;;;5049860;28;20247;-79
2022/07/15 03:22:05;;;;;;;8.73;1.88;;;18.40;99.90;;;;;;5047771;28;20216;-78
2022/07/15 03:24:57;;;;;;;4.35;1.80;;;18.40;99.90;;;;;;5042771;28;20228;-79
2022/07/15 03:27:46;;;;;;;6.18;1.70;;;18.40;99.90;;;;;;5074632;28;20227;-79
2022/07/15 03:30:35;;;;;;;4.55;1.40;;;18.40;99.90;;;;;;5075500;28;20357;-78
2022/07/15 03:33:24;;;;;;;6.32;1.60;;;18.50;99.90;;;;;;5060443;28;20212;-78
2022/07/15 03:36:13;;;;;;;5.63;1.60;;;18.60;99.90;;;;;;5050220;28;20228;-78
2022/07/15 03:39:04;;;;;;;5.75;1.60;;;18.60;99.90;;;;;;5064457;28;20230;-79
2022/07/15 03:41:53;;;;;;;4.97;1.27;;;18.60;99.90;;;;;;5060665;28;20224;-79
2022/07/15 03:44:43;;;;;;;8.88;1.75;;;18.60;99.90;;;;;;5050350;28;20389;-79
2022/07/15 03:47:31;;;;;;;3.85;1.42;;;18.70;99.90;;;;;;5061726;28;20224;-79
2022/07/15 03:50:22;;;;;;;7.97;1.42;;;18.70;99.90;;;;;;5048947;28;20294;-79
2022/07/15 03:53:11;;;;;;;3.30;1.30;;;18.70;99.90;;;;;;5049346;28;20366;-79
2022/07/15 03:56:01;;;;;;;3.40;1.10;;;18.70;99.90;;;;;;5062973;28;20885;-79
2022/07/15 03:58:50;;;;;;;5.90;1.35;;;18.70;99.90;;;;;;5047431;28;20270;-79
2022/07/15 04:01:39;;;;;;;5.60;1.20;;;18.80;99.90;;;;;;5059557;28;20224;-79
2022/07/15 04:04:28;;;;;;;6.40;1.20;;;18.90;99.90;;;;;;5049995;28;20224;-78
2022/07/15 04:07:17;;;;;;;3.90;1.10;;;18.90;99.90;;;;;;5061511;28;21099;-78
2022/07/15 04:10:08;;;;;;;3.83;1.42;;;19.00;99.90;;;;;;5053568;28;20232;-79
2022/07/15 04:12:58;;;;;;;2.70;1.00;;;19.00;99.90;;;;;;5062863;28;20219;-78
2022/07/15 04:15:47;;;;;;;4.72;1.25;;;19.10;99.90;;;;;;5039208;28;20215;-78
2022/07/15 04:18:36;;;;;;;3.13;1.10;;;19.20;99.90;;;;;;5060382;28;20227;-78
2022/07/15 04:21:25;;;;;;;3.97;1.20;;;19.20;99.90;;;;;;5048019;28;20219;-79
2022/07/15 04:24:14;;;;;;;3.65;1.27;;;19.30;99.90;;;;;;5045170;28;20290;-80
2022/07/15 04:27:11;;;;;;;4.05;1.20;;;19.20;99.90;;;;;;5044046;28;20220;-79
2022/07/15 04:30:01;;;;;;;3.25;1.33;;;19.20;99.90;;;;;;5060144;28;20252;-79
2022/07/15 04:32:58;;;;;;;4.47;1.10;;;19.20;99.90;;;;;;5046863;28;20381;-78
2022/07/15 04:35:51;;;;;;;7.88;1.52;;;19.40;99.90;;;;;;5043366;28;20285;-77
2022/07/15 04:38:40;;;;;;;6.65;1.13;;;19.40;99.90;;;;;;5069905;28;20261;-80
2022/07/15 04:41:28;;;;;;;2.63;0.85;;;19.50;99.90;;;;;;5052077;28;20713;-80
2022/07/15 04:44:17;;;;;;;6.88;1.00;;;19.40;99.30;;;;;;5046710;28;20312;-83
2022/07/15 04:47:08;;;;;;;3.63;1.25;;;19.50;99.00;;;;;;5033056;28;20228;-80
2022/07/15 04:53:11;;;;;;;3.97;0.90;;;19.60;96.00;;;;;;5044827;28;20228;-80
2022/07/15 04:56:00;;;;;;;2.83;1.20;;;19.70;96.30;;;;;;5057587;28;20295;-79
2022/07/15 04:58:48;;;;;;;4.57;1.00;;;19.70;95.40;;;;;;5058839;28;20223;-78
2022/07/15 05:01:37;;;;;;;3.28;1.25;;;19.80;93.80;;;;;;5039787;28;20228;-79
2022/07/15 05:04:27;;;;;;;5.28;1.30;;;19.90;94.70;;;;;;5041794;28;20259;-78
2022/07/15 05:07:16;;;;;;;2.05;0.90;;;20.00;94.50;;;;;;5042681;28;20698;-76
2022/07/15 05:10:07;;;;;;;2.97;1.10;;;20.10;93.40;;;;;;5040677;28;20221;-77
2022/07/15 05:12:58;;;;;;;3.97;1.00;;;20.10;92.60;;;;;;5044762;28;20223;-77
2022/07/15 05:15:47;;;;;;;3.60;0.88;;;20.20;92.70;;;;;;5045322;28;20700;-78
2022/07/15 05:18:41;;;;;;;2.97;0.98;;;20.30;92.50;;;;;;5044806;28;20290;-78
2022/07/15 05:21:32;;;;;;;2.95;1.25;;;20.30;91.50;;;;;;5041780;28;20223;-77
2022/07/15 05:24:21;;;;;;;5.63;1.20;;;20.30;90.90;;;;;;5073526;28;20220;-78
2022/07/15 05:27:16;;;;;;;3.35;1.10;;;20.40;90.30;;;;;;5046503;28;20699;-77
2022/07/15 05:30:09;;;;;;;3.33;1.05;;;20.40;90.60;;;;;;5047891;28;20366;-78
2022/07/15 05:32:58;;;;;;;2.30;1.08;;;20.50;90.50;;;;;;5058615;28;20328;-78
2022/07/15 05:35:48;;;;;;;2.53;1.05;;;20.60;90.10;;;;;;5049708;28;20678;-78
2022/07/15 05:38:46;;;;;;;9.40;1.20;;;20.80;88.50;;;;;;5045672;28;20224;-78
2022/07/15 05:41:37;;;;;;;2.13;0.88;;;20.90;86.60;;;;;;5046571;28;20218;-79
2022/07/15 05:44:30;;;;;;;5.35;0.90;;;21.30;87.20;;;;;;5042940;28;20326;-78
2022/07/15 05:47:19;;;;;;;2.58;1.10;;;22.10;84.20;;;;;;5049941;28;20223;-78
2022/07/15 05:50:09;;;;;;;7.22;1.65;;;21.90;82.60;;;;;;5046771;28;20225;-78
2022/07/15 05:53:00;;;;;;;2.17;1.00;;;21.60;84.80;;;;;;5041501;28;20265;-77
2022/07/15 05:55:52;;;;;;;3.60;1.13;;;21.80;85.40;;;;;;5044191;28;20217;-77
2022/07/15 05:58:43;;;;;;;5.88;1.35;;;21.50;87.30;;;;;;5059281;28;20227;-79
2022/07/15 06:01:32;;;;;;;2.17;1.13;;;21.60;87.10;;;;;;5055297;28;20220;-78
2022/07/15 06:04:21;;;;;;;3.40;0.93;;;21.60;85.70;;;;;;5044494;28;20308;-78
2022/07/15 06:07:10;;;;;;;10.45;1.45;;;21.60;85.50;;;;;;5059985;28;20594;-79
2022/07/15 06:09:59;;;;;;;4.40;1.10;;;21.40;84.50;;;;;;5059125;28;20568;-79
2022/07/15 06:12:49;;;;;;;2.85;1.10;;;21.30;85.60;;;;;;5042269;28;20270;-79
2022/07/15 06:15:38;;;;;;;2.63;0.80;;;21.00;86.00;;;;;;5047669;28;20217;-78
2022/07/15 06:18:29;;;;;;;3.47;1.10;;;20.80;87.30;;;;;;5043928;28;20224;-78
2022/07/15 06:21:18;;;;;;;3.60;0.93;;;20.80;89.20;;;;;;5059893;28;20242;-78
2022/07/15 06:24:07;;;;;;;5.35;0.95;;;20.80;89.50;;;;;;5042419;28;20235;-77
2022/07/15 06:26:56;;;;;;;5.05;1.00;;;20.70;90.20;;;;;;5043119;28;20300;-77
2022/07/15 06:29:45;;;;;;;3.38;0.82;;;20.70;90.90;;;;;;5054900;28;20623;-77
2022/07/15 06:32:34;;;;;;;5.70;1.50;;;20.70;91.60;;;;;;5050454;28;20220;-76
2022/07/15 06:35:24;;;;;;;6.57;1.10;;;20.70;92.60;;;;;;5055364;28;20230;-76
2022/07/15 06:38:12;;;;;;;8.95;1.20;;;20.80;92.10;;;;;;5048211;28;20232;-77
2022/07/15 06:41:03;;;;;;;5.93;1.35;;;20.90;92.20;;;;;;5060234;28;20590;-77
2022/07/15 06:43:52;;;;;;;4.20;1.67;;;21.00;92.70;;;;;;5051220;28;20213;-82
2022/07/15 06:46:57;;;;;;;3.22;1.23;;;21.10;93.00;;;;;;5060370;28;20296;-79
2022/07/15 06:49:50;;;;;;;7.25;1.27;;;21.30;93.10;;;;;;5075395;28;20299;-76
2022/07/15 06:52:40;;;;;;;3.10;1.00;;;21.50;91.90;;;;;;5048669;28;20267;-77
2022/07/15 06:55:28;;;;;;;3.38;1.30;;;21.60;91.20;;;;;;5045524;28;20227;-80
2022/07/15 06:58:18;;;;;;;5.47;1.23;;;21.60;91.60;;;;;;5036726;28;20216;-80
2022/07/15 07:01:07;;;;;;;9.38;1.67;;;21.50;91.60;;;;;;5031662;28;20225;-80
2022/07/15 07:03:57;;;;;;;7.90;1.60;;;21.70;92.50;;;;;;5029607;28;20307;-76
2022/07/15 07:06:49;;;;;;;6.22;1.20;;;21.70;91.80;;;;;;5040259;28;20216;-80
2022/07/15 07:09:38;;;;;;;4.75;1.25;;;21.80;90.80;;;;;;5027906;28;20347;-80
2022/07/15 07:12:27;;;;;;;3.50;0.90;;;21.90;90.40;;;;;;5018912;28;20252;-77
2022/07/15 07:15:16;;;;;;;6.30;1.23;;;22.10;90.80;;;;;;5040386;28;20213;-77
2022/07/15 07:18:04;;;;;;;6.97;1.58;;;22.00;90.00;;;;;;5046104;28;20608;-79
2022/07/15 07:20:54;;;;;;;4.40;1.25;;;22.40;90.10;;;;;;5039927;28;20712;-77
2022/07/15 07:23:43;;;;;;;2.55;1.20;;;22.20;90.70;;;;;;5039768;28;20233;-77
2022/07/15 07:26:31;;;;;;;3.70;1.70;;;22.40;90.30;;;;;;5020357;28;20730;-76
2022/07/15 07:29:22;;;;;;;3.67;1.58;;;22.70;88.40;;;;;;5053603;28;20591;-78
2022/07/15 07:32:11;;;;;;;5.97;2.10;;;23.00;86.70;;;;;;5056557;28;20217;-78
2022/07/15 07:35:00;;;;;;;4.03;1.73;;;23.70;87.10;;;;;;5052236;28;20217;-78
2022/07/15 07:37:50;;;;;;;7.03;1.20;;;23.60;85.50;;;;;;5051005;28;20224;-82
2022/07/15 07:40:39;;;;;;;5.00;1.40;;;23.50;86.70;;;;;;5023818;28;22008;-77
2022/07/15 07:43:28;;;;;;;2.63;1.20;;;23.80;85.20;;;;;;5056390;28;20225;-76
2022/07/15 07:46:17;;;;;;;4.90;1.35;;;23.80;85.00;;;;;;5045719;28;20216;-76
2022/07/15 07:49:06;;;;;;;5.50;1.63;;;24.00;83.80;;;;;;5054424;28;20217;-78
2022/07/15 07:52:15;;;;;;;3.30;1.20;;;23.70;81.70;;;;;;5036284;28;20250;-77
2022/07/15 07:55:06;;;;;;;4.05;1.30;;;24.40;79.30;;;;;;5070992;28;20220;-76
2022/07/15 07:57:57;;;;;;;5.30;1.48;;;24.70;77.30;;;;;;5063735;28;20228;-78
2022/07/15 08:00:46;;;;;;;3.40;1.45;;;24.80;75.70;;;;;;5037751;28;20223;-83
2022/07/15 08:03:35;;;;;;;4.90;1.25;;;25.50;78.10;;;;;;5073794;28;20250;-83
2022/07/15 08:06:25;;;;;;;6.15;1.40;;;25.70;77.60;;;;;;5077778;28;20748;-81
2022/07/15 08:09:14;;;;;;;5.88;1.40;;;25.00;79.70;;;;;;5092283;28;20358;-79
2022/07/15 08:12:05;;;;;;;4.15;1.80;;;24.10;80.70;;;;;;5071202;28;20220;-84
2022/07/15 08:14:54;;;;;;;5.35;1.80;;;24.90;83.00;;;;;;5050003;28;20223;-76
2022/07/15 08:17:43;;;;;;;5.43;2.00;;;24.80;79.40;;;;;;5048189;28;20229;-83
2022/07/15 08:20:33;;;;;;;3.40;1.30;;;24.70;77.50;;;;;;5069639;28;20227;-82
2022/07/15 08:23:22;;;;;;;2.78;1.30;;;24.60;76.20;;;;;;5053392;28;20239;-87
2022/07/15 08:26:13;;;;;;;2.28;1.30;;;25.60;76.50;;;;;;5047699;28;20228;-83
2022/07/15 08:29:04;;;;;;;6.20;1.15;;;25.60;76.60;;;;;;5064047;28;20242;-85
2022/07/15 08:31:54;;;;;;;4.75;1.10;;;26.10;73.90;;;;;;5055140;28;20239;-84
2022/07/15 08:34:42;;;;;;;3.83;0.98;;;26.70;68.00;;;;;;5071947;28;20220;-84
2022/07/15 08:37:31;;;;;;;2.47;1.17;;;26.90;68.50;;;;;;5051691;28;20290;-83
2022/07/15 08:40:20;;;;;;;3.33;1.08;;;27.60;66.40;;;;;;5062930;28;20213;-78
2022/07/15 08:43:10;;;;;;;5.25;1.00;;;28.00;64.40;;;;;;5060664;28;20227;-80
2022/07/15 08:46:00;;;;;;;2.72;1.10;;;28.20;62.10;;;;;;5060700;28;20224;-78
2022/07/15 08:48:53;;;;;;;3.80;1.10;;;28.70;60.50;;;;;;5064400;28;20224;-84
2022/07/15 08:51:44;;;;;;;2.45;0.90;;;29.00;58.10;;;;;;5080590;28;20341;-83
2022/07/15 08:54:33;;;;;;;2.85;1.05;;;28.20;59.60;;;;;;5089893;28;20222;-80
2022/07/15 08:57:22;;;;;;;2.58;1.08;;;27.30;61.80;;;;;;5075903;28;20211;-83
2022/07/15 09:00:11;;;;;;;4.00;0.95;;;27.50;61.30;;;;;;5085464;28;20228;-83
2022/07/15 09:03:05;;;;;;;2.42;1.10;;;27.40;60.00;;;;;;5045740;28;20591;-82
2022/07/15 09:05:53;;;;;;;3.63;1.10;;;27.70;58.00;;;;;;5062617;28;20324;-83
2022/07/15 09:08:42;;;;;;;1.58;1.00;;;27.40;60.40;;;;;;5047085;28;20281;-83
2022/07/15 09:11:31;;;;;;;2.45;0.90;;;28.90;59.00;;;;;;5043872;28;20667;-79
2022/07/15 09:14:22;;;;;;;5.25;1.23;;;30.10;55.50;;;;;;5066054;28;20219;-80
2022/07/15 09:17:23;;;;;;;2.42;0.95;;;30.50;54.60;;;;;;5060821;28;20223;-79
2022/07/15 09:20:15;;;;;;;1.63;0.80;;;30.10;52.70;;;;;;5045098;28;20261;-78
2022/07/15 09:23:04;;;;;;;3.47;0.88;;;31.50;53.20;;;;;;5063441;28;20231;-79
2022/07/15 09:25:53;;;;;;;8.32;1.17;;;31.80;50.00;;;;;;5038885;28;20230;-79
2022/07/15 09:28:44;;;;;;;2.30;0.98;;;29.40;52.70;;;;;;5036880;28;20227;-77
2022/07/15 09:35:00;;;;;;;4.45;1.15;;;27.50;58.40;;;;;;5054884;28;20702;-76
2022/07/15 09:38:00;;;;;;;2.85;0.93;;;30.20;54.90;;;;;;5053508;28;20579;-82
2022/07/15 09:40:50;;;;;;;2.72;1.10;;;30.90;52.20;;;;;;5067410;28;20694;-82
2022/07/15 09:43:47;;;;;;;3.13;1.02;;;29.00;53.90;;;;;;5053884;28;20230;-83
2022/07/15 09:46:46;;;;;;;3.58;0.88;;;30.40;52.20;;;;;;5057334;28;20535;-78
2022/07/15 09:49:38;;;;;;;3.42;1.20;;;31.80;49.70;;;;;;5058096;28;20726;-79
2022/07/15 09:52:45;;;;;;;3.30;1.13;;;30.90;49.20;;;;;;5042437;28;20229;-78
2022/07/15 09:55:36;;;;;;;5.70;0.95;;;29.40;51.60;;;;;;5041861;28;20254;-81
2022/07/15 09:58:26;;;;;;;3.17;1.13;;;29.60;52.30;;;;;;5059559;28;20712;-85
2022/07/15 10:01:15;;;;;;;4.70;0.82;;;32.10;51.30;;;;;;5063313;28;20297;-84
2022/07/15 10:04:05;;;;;;;5.07;1.13;;;32.40;48.10;;;;;;5068189;28;20664;-78
2022/07/15 10:06:55;;;;;;;2.88;1.17;;;34.70;45.90;;;;;;5050171;28;20353;-83
2022/07/15 10:10:05;;;;;;;3.58;1.05;;;36.40;43.00;;;;;;5066740;28;20323;-84
2022/07/15 10:13:11;;;;;;;2.03;0.82;;;37.60;40.70;;;;;;5061157;28;20287;-84
2022/07/15 10:16:17;;;;;;;2.67;0.90;;;38.40;39.80;;;;;;5074915;28;20220;-84
2022/07/15 10:19:16;;;;;;;3.05;0.65;;;34.00;42.60;;;;;;5043570;28;20270;-82
2022/07/15 10:22:15;;;;;;;7.05;1.17;;;33.10;43.20;;;;;;5061932;28;20737;-79
2022/07/15 10:25:17;;;;;;;3.85;1.10;;;34.90;41.10;;;;;;5051963;28;20859;-79
2022/07/15 10:28:11;;;;;;;2.88;0.80;;;34.90;39.50;;;;;;5056514;28;20226;-84
2022/07/15 10:31:18;;;;;;;1.92;0.70;;;32.50;43.10;;;;;;5040224;28;20670;-81
2022/07/15 10:34:21;;;;;;;12.88;1.95;;;30.60;45.20;;;;;;5057140;28;20238;-78
2022/07/15 10:37:11;;;;;;;6.75;1.25;;;33.50;45.00;;;;;;5068745;28;20226;-85
2022/07/15 10:40:06;;;;;;;12.18;1.33;;;35.70;40.70;;;;;;5051351;28;20234;-87
2022/07/15 10:43:01;;;;;;;4.47;1.00;;;35.60;39.20;;;;;;5061344;28;20215;-82
2022/07/15 10:46:04;;;;;;;3.63;0.80;;;32.90;41.60;;;;;;5046368;28;20227;-83
2022/07/15 10:49:09;;;;;;;3.35;1.00;;;31.70;44.50;;;;;;5063878;28;20226;-79
2022/07/15 10:52:13;;;;;;;3.78;1.00;;;29.90;46.30;;;;;;5045639;28;20600;-82
2022/07/15 10:55:05;;;;;;;4.22;1.23;;;28.60;50.20;;;;;;5048207;28;20226;-84
2022/07/15 10:57:55;;;;;;;3.75;0.95;;;27.60;51.00;;;;;;5050302;28;20219;-78
2022/07/15 11:00:46;;;;;;;3.35;0.75;;;27.30;51.20;;;;;;5063270;28;20215;-78
2022/07/15 11:04:20;;;;;;;3.90;0.98;;;27.30;52.50;;;;;;5061320;28;20230;-78
2022/07/15 11:07:30;;;;;;;4.63;0.95;;;27.90;52.70;;;;;;5056155;28;20250;-79
2022/07/15 11:10:22;;;;;;;4.35;0.77;;;33.10;49.10;;;;;;5054561;28;20226;-79
2022/07/15 11:13:11;;;;;;;2.55;1.00;;;33.00;44.10;;;;;;5057117;28;20238;-80
2022/07/15 11:16:00;;;;;;;5.85;1.17;;;33.70;42.50;;;;;;5061400;28;20356;-78
2022/07/15 11:18:52;;;;;;;6.15;1.38;;;33.90;43.30;;;;;;5058801;28;20242;-90
2022/07/15 11:21:49;;;;;;;6.95;0.98;;;33.50;42.90;;;;;;5064894;28;20701;-83
2022/07/15 11:24:38;;;;;;;2.97;1.20;;;31.50;45.00;;;;;;5049790;28;20298;-77
2022/07/15 11:27:27;;;;;;;2.90;1.10;;;30.70;47.50;;;;;;5062394;28;20230;-79
2022/07/15 11:30:17;;;;;;;9.85;1.58;;;29.90;47.90;;;;;;5051283;28;20226;-86
2022/07/15 11:33:08;;;;;;;4.18;1.00;;;30.00;48.50;;;;;;5047181;28;20220;-78
2022/07/15 11:36:02;;;;;;;6.53;0.90;;;33.40;45.90;;;;;;5065581;28;20215;-92
2022/07/15 11:38:51;;;;;;;3.47;1.23;;;34.90;42.40;;;;;;5062751;28;20299;-83
2022/07/15 11:45:00;;;;;;;3.13;1.20;;;34.40;43.80;;;;;;5047658;28;20796;-84
2022/07/15 11:47:53;;;;;;;5.55;0.88;;;35.30;41.90;;;;;;5066076;28;20243;-84
2022/07/15 11:50:50;;;;;;;8.75;1.65;;;36.10;41.80;;;;;;5058926;28;20515;-81
2022/07/15 11:53:43;;;;;;;1.98;0.70;;;37.20;39.40;;;;;;5067571;28;20230;-89
2022/07/15 11:56:32;;;;;;;1.90;0.93;;;36.20;38.70;;;;;;5063906;28;20232;-91
2022/07/15 11:59:20;;;;;;;6.82;1.00;;;34.30;40.30;;;;;;5048125;28;20224;-78
2022/07/15 12:02:11;;;;;;;5.70;0.90;;;36.10;38.90;;;;;;5056145;28;20713;-77
2022/07/15 12:05:04;;;;;;;3.42;0.90;;;36.70;38.00;;;;;;5072151;28;20998;-78
2022/07/15 12:07:53;;;;;;;3.00;0.80;;;35.70;38.40;;;;;;5063587;28;20292;-77
2022/07/15 12:10:43;;;;;;;3.40;1.23;;;35.90;38.40;;;;;;5059948;28;20512;-77
2022/07/15 12:13:45;;;;;;;5.00;0.90;;;36.40;37.50;;;;;;5046887;28;20317;-87
2022/07/15 12:16:41;;;;;;;2.53;0.90;;;33.90;38.50;;;;;;5058389;28;20231;-86
2022/07/15 12:19:33;;;;;;;2.30;0.68;;;31.40;41.10;;;;;;5085993;28;20211;-77
2022/07/15 12:22:23;;;;;;;2.78;0.93;;;30.20;43.30;;;;;;5058504;28;20550;-78
2022/07/15 12:25:20;;;;;;;3.55;1.20;;;29.60;45.00;;;;;;5057684;28;20220;-78
2022/07/15 12:28:10;;;;;;;2.08;1.02;;;33.10;42.00;;;;;;5058302;28;20219;-77
2022/07/15 12:30:59;;;;;;;2.65;0.68;;;35.30;40.10;;;;;;5040287;28;20539;-77
2022/07/15 12:33:52;;;;;;;3.67;0.80;;;34.40;38.60;;;;;;5060014;28;20219;-78
2022/07/15 12:36:41;;;;;;;11.23;1.05;;;34.40;39.60;;;;;;5063897;28;20294;-77
2022/07/15 12:39:30;;;;;;;8.90;1.08;;;35.10;39.10;;;;;;5045671;28;20333;-78
2022/07/15 12:42:18;;;;;;;4.60;1.10;;;34.60;37.20;;;;;;5056943;28;20228;-77
2022/07/15 12:45:13;;;;;;;3.45;0.80;;;35.30;36.20;;;;;;5056703;28;20231;-77
2022/07/15 12:48:04;;;;;;;3.67;1.02;;;35.30;36.20;;;;;;5053160;28;20216;-77
2022/07/15 12:51:00;;;;;;;1.30;0.73;;;35.20;36.90;;;;;;5043333;28;20227;-77
2022/07/15 12:53:49;;;;;;;5.90;1.02;;;33.40;37.90;;;;;;5059449;28;20280;-88
2022/07/15 12:56:51;;;;;;;4.03;1.33;;;31.70;39.80;;;;;;5051832;28;20228;-87
2022/07/15 12:59:51;;;;;;;3.05;1.42;;;29.90;42.00;;;;;;5034083;28;20249;-77
2022/07/15 13:02:58;;;;;;;10.73;1.35;;;28.80;44.80;;;;;;5041780;28;20229;-78
2022/07/15 13:05:48;;;;;;;2.75;1.10;;;28.30;45.20;;;;;;5053322;28;20212;-87
2022/07/15 13:08:40;;;;;;;7.97;1.05;;;27.50;46.60;;;;;;5048210;28;20283;-85
2022/07/15 13:11:28;;;;;;;3.95;0.98;;;27.10;47.00;;;;;;5077556;28;20215;-77
2022/07/15 13:14:17;;;;;;;3.00;0.90;;;26.60;47.90;;;;;;5040588;28;20341;-86
2022/07/15 13:17:06;;;;;;;3.53;1.10;;;26.30;48.40;;;;;;5064725;28;20223;-86
2022/07/15 13:19:56;;;;;;;1.38;0.80;;;25.80;49.10;;;;;;5065022;28;20227;-86
2022/07/15 13:22:45;;;;;;;4.18;0.70;;;25.70;49.90;;;;;;5061747;28;20227;-78
2022/07/15 13:25:36;;;;;;;3.78;0.82;;;25.60;50.70;;;;;;5047837;28;20239;-75
2022/07/15 13:28:25;;;;;;;4.43;0.65;;;25.50;51.40;;;;;;5053624;28;20308;-76
2022/07/15 13:31:13;;;;;;;1.52;0.75;;;25.10;51.10;;;;;;5063848;28;20266;-84
2022/07/15 13:34:02;;;;;;;4.03;1.02;;;24.90;51.10;;;;;;5054619;28;20223;-77
2022/07/15 13:36:52;;;;;;;4.93;0.82;;;24.80;52.50;;;;;;5058138;28;20282;-77
2022/07/15 13:39:41;;;;;;;3.80;2.10;;;24.70;52.30;;;;;;5049994;28;20229;-88
2022/07/15 13:42:30;;;;;;;1.50;0.90;;;24.60;51.30;;;;;;5055941;28;20583;-77
2022/07/15 13:45:19;;;;;;;5.82;0.95;;;24.50;51.10;;;;;;5070495;28;20221;-87
2022/07/15 13:48:07;;;;;;;5.30;0.90;;;24.50;51.00;;;;;;5061732;28;20228;-77
2022/07/15 13:54:03;;;;;;;2.65;0.93;;;24.50;52.40;;;;;;5048516;28;20220;-78
2022/07/15 13:56:53;;;;;;;6.00;1.05;;;24.60;52.90;;;;;;5060361;28;20231;-77
2022/07/15 13:59:45;;;;;;;3.97;1.70;;;24.70;53.40;;;;;;5048079;28;20225;-77
2022/07/15 14:02:34;;;;;;;2.80;0.93;;;24.60;53.30;;;;;;5049037;28;20317;-77
2022/07/15 14:05:24;;;;;;;6.78;1.30;;;24.50;53.90;;;;;;5059797;28;20312;-77
2022/07/15 14:08:12;;;;;;;4.30;1.38;;;24.60;54.40;;;;;;5044841;28;20751;-77
2022/07/15 14:11:02;;;;;;;2.50;0.88;;;24.30;54.10;;;;;;5052655;28;20647;-77
2022/07/15 14:13:51;;;;;;;4.50;0.85;;;24.10;53.80;;;;;;5063549;28;20717;-78
2022/07/15 14:16:40;;;;;;;8.60;1.45;;;24.00;54.70;;;;;;5068043;28;20219;-76
2022/07/15 14:19:29;;;;;;;4.32;1.95;;;23.90;54.70;;;;;;5072389;28;20336;-77
2022/07/15 14:22:17;;;;;;;2.95;0.80;;;24.00;54.90;;;;;;5063793;28;20216;-77
2022/07/15 14:25:08;;;;;;;3.50;0.70;;;23.90;55.00;;;;;;5064621;28;20216;-77
2022/07/15 14:27:59;;;;;;;8.05;0.60;;;23.60;55.20;;;;;;5064868;28;20306;-78
2022/07/15 14:30:48;;;;;;;5.88;1.40;;;23.70;55.40;;;;;;5064933;28;20223;-76
2022/07/15 14:33:37;;;;;;;7.03;1.10;;;23.60;56.30;;;;;;5053400;28;20221;-75
2022/07/15 14:36:26;;;;;;;3.50;0.88;;;23.40;55.60;;;;;;5062298;28;20296;-86
2022/07/15 14:39:15;;;;;;;2.78;0.80;;;23.60;56.00;;;;;;5052283;28;20220;-79
2022/07/15 14:42:03;;;;;;;5.38;1.63;;;23.60;55.80;;;;;;5065760;28;20226;-78
2022/07/15 14:44:53;;;;;;;4.53;0.90;;;23.60;56.40;;;;;;5059559;28;20240;-78
2022/07/15 14:47:42;;;;;;;2.03;1.00;;;23.70;57.20;;;;;;5052544;28;20809;-79
2022/07/15 14:50:32;;;;;;;6.32;1.20;;;23.80;57.10;;;;;;5065049;28;20212;-78
2022/07/15 14:53:21;;;;;;;4.25;1.35;;;23.60;57.10;;;;;;5078246;28;20231;-77
2022/07/15 14:56:10;;;;;;;5.43;0.88;;;23.50;57.30;;;;;;5048665;28;20216;-78
2022/07/15 14:58:59;;;;;;;1.60;0.50;;;23.40;57.30;;;;;;5047663;28;20216;-78
2022/07/15 15:01:49;;;;;;;4.60;0.75;;;23.40;57.00;;;;;;5081645;28;20216;-77